sensor_id;sensor_type;location;lat;lon;timestamp;pressure;altitude;pressure_sealevel;temperature;humidity
35553;BME280;21656;46.054;13.614;2022-08-05T06:55:46;100391.91;;;25.38;67.50
35553;BME280;21656;46.054;13.614;2022-08-05T06:58:12;100391.66;;;25.46;67.83
35553;BME280;21656;46.054;13.614;2022-08-05T07:00:37;100390.53;;;25.54;67.25
35553;BME280;21656;46.054;13.614;2022-08-05T07:03:02;100395.19;;;25.60;66.78
35553;BME280;21656;46.054;13.614;2022-08-05T07:05:28;100393.81;;;25.69;66.37
35553;BME280;21656;46.054;13.614;2022-08-05T07:07:53;100388.66;;;25.80;66.70
35553;BME280;21656;46.054;13.614;2022-08-05T07:10:19;100393.94;;;25.88;66.51
35553;BME280;21656;46.054;13.614;2022-08-05T07:12:44;100380.91;;;25.95;65.48
35553;BME280;21656;46.054;13.614;2022-08-05T07:15:28;100388.69;;;26.05;65.52
35553;BME280;21656;46.054;13.614;2022-08-05T07:18:12;100386.03;;;26.16;64.80
35553;BME280;21656;46.054;13.614;2022-08-05T07:20:38;100388.50;;;26.25;62.91
35553;BME280;21656;46.054;13.614;2022-08-05T07:23:03;100380.47;;;26.23;62.86
35553;BME280;21656;46.054;13.614;2022-08-05T07:25:29;100382.28;;;26.29;63.03
35553;BME280;21656;46.054;13.614;2022-08-05T07:27:54;100379.63;;;26.41;63.05
35553;BME280;21656;46.054;13.614;2022-08-05T07:30:20;100372.72;;;26.50;62.84
35553;BME280;21656;46.054;13.614;2022-08-05T07:32:46;100373.38;;;26.52;62.96
35553;BME280;21656;46.054;13.614;2022-08-05T07:35:12;100370.53;;;26.59;62.80
35553;BME280;21656;46.054;13.614;2022-08-05T07:37:38;100365.31;;;26.69;62.88
35553;BME280;21656;46.054;13.614;2022-08-05T07:40:04;100366.44;;;26.80;61.49
35553;BME280;21656;46.054;13.614;2022-08-05T07:42:30;100357.38;;;26.91;61.91
35553;BME280;21656;46.054;13.614;2022-08-05T07:44:56;100361.88;;;27.04;61.05
35553;BME280;21656;46.054;13.614;2022-08-05T07:47:21;100363.00;;;27.15;60.62
35553;BME280;21656;46.054;13.614;2022-08-05T07:49:47;100361.41;;;27.26;59.31
35553;BME280;21656;46.054;13.614;2022-08-05T07:52:12;100354.91;;;27.32;58.83
35553;BME280;21656;46.054;13.614;2022-08-05T07:54:38;100363.47;;;27.42;59.27
35553;BME280;21656;46.054;13.614;2022-08-05T07:57:04;100352.81;;;27.45;59.02
35553;BME280;21656;46.054;13.614;2022-08-05T07:59:29;100347.28;;;27.57;58.21
35553;BME280;21656;46.054;13.614;2022-08-05T08:01:55;100349.25;;;27.69;58.22
35553;BME280;21656;46.054;13.614;2022-08-05T08:04:20;100352.66;;;27.82;55.30
35553;BME280;21656;46.054;13.614;2022-08-05T08:06:45;100352.06;;;27.92;56.26
35553;BME280;21656;46.054;13.614;2022-08-05T08:09:11;100350.38;;;28.03;55.66
35553;BME280;21656;46.054;13.614;2022-08-05T08:11:37;100352.91;;;28.16;54.99
35553;BME280;21656;46.054;13.614;2022-08-05T08:14:02;100339.31;;;28.26;54.08
35553;BME280;21656;46.054;13.614;2022-08-05T08:16:28;100351.94;;;28.34;52.89
35553;BME280;21656;46.054;13.614;2022-08-05T08:18:53;100341.56;;;28.41;52.56
35553;BME280;21656;46.054;13.614;2022-08-05T08:21:19;100337.97;;;28.52;50.90
35553;BME280;21656;46.054;13.614;2022-08-05T08:23:44;100342.88;;;28.62;50.72
35553;BME280;21656;46.054;13.614;2022-08-05T08:26:09;100338.38;;;28.73;50.99
35553;BME280;21656;46.054;13.614;2022-08-05T08:28:35;100341.13;;;28.85;51.54
35553;BME280;21656;46.054;13.614;2022-08-05T08:31:00;100331.69;;;28.98;51.24
35553;BME280;21656;46.054;13.614;2022-08-05T08:33:25;100329.84;;;29.15;50.21
35553;BME280;21656;46.054;13.614;2022-08-05T08:35:51;100327.47;;;29.24;50.20
35553;BME280;21656;46.054;13.614;2022-08-05T08:38:16;100333.66;;;29.43;49.58
35553;BME280;21656;46.054;13.614;2022-08-05T08:40:42;100324.91;;;29.51;49.84
35553;BME280;21656;46.054;13.614;2022-08-05T08:43:10;100324.75;;;29.57;49.68
35553;BME280;21656;46.054;13.614;2022-08-05T08:45:36;100320.56;;;29.72;49.90
35553;BME280;21656;46.054;13.614;2022-08-05T08:48:02;100320.50;;;29.84;50.30
35553;BME280;21656;46.054;13.614;2022-08-05T08:50:30;100319.03;;;29.98;49.39
35553;BME280;21656;46.054;13.614;2022-08-05T08:53:03;100315.31;;;30.26;48.17
35553;BME280;21656;46.054;13.614;2022-08-05T08:55:29;100320.38;;;30.51;47.39
35553;BME280;21656;46.054;13.614;2022-08-05T08:57:57;100314.63;;;30.80;46.27
35553;BME280;21656;46.054;13.614;2022-08-05T09:00:23;100308.00;;;31.35;44.34
35553;BME280;21656;46.054;13.614;2022-08-05T09:02:49;100316.25;;;31.57;42.29
35553;BME280;21656;46.054;13.614;2022-08-05T09:05:16;100308.94;;;31.78;42.35
35553;BME280;21656;46.054;13.614;2022-08-05T09:07:41;100309.09;;;31.99;41.30
35553;BME280;21656;46.054;13.614;2022-08-05T09:10:07;100310.19;;;31.98;41.25
35553;BME280;21656;46.054;13.614;2022-08-05T09:12:33;100305.41;;;31.93;42.14
35553;BME280;21656;46.054;13.614;2022-08-05T09:15:01;100305.56;;;32.13;41.81
35553;BME280;21656;46.054;13.614;2022-08-05T09:17:26;100309.28;;;32.29;40.41
35553;BME280;21656;46.054;13.614;2022-08-05T09:19:52;100312.75;;;32.52;40.01
35553;BME280;21656;46.054;13.614;2022-08-05T09:22:17;100313.59;;;32.52;39.08
35553;BME280;21656;46.054;13.614;2022-08-05T09:24:56;100306.63;;;32.55;39.55
35553;BME280;21656;46.054;13.614;2022-08-05T09:27:30;100309.66;;;32.48;39.46
35553;BME280;21656;46.054;13.614;2022-08-05T09:29:57;100307.47;;;32.55;39.47
35553;BME280;21656;46.054;13.614;2022-08-05T09:32:33;100306.69;;;32.70;38.68
35553;BME280;21656;46.054;13.614;2022-08-05T09:34:58;100297.75;;;32.68;38.87
35553;BME280;21656;46.054;13.614;2022-08-05T09:37:26;100307.28;;;32.77;38.19
35553;BME280;21656;46.054;13.614;2022-08-05T09:39:52;100307.84;;;32.74;38.21
35553;BME280;21656;46.054;13.614;2022-08-05T09:42:20;100299.47;;;32.74;38.23
35553;BME280;21656;46.054;13.614;2022-08-05T09:44:51;100298.34;;;32.80;39.16
35553;BME280;21656;46.054;13.614;2022-08-05T09:47:18;100294.50;;;32.92;38.99
35553;BME280;21656;46.054;13.614;2022-08-05T09:49:51;100285.56;;;32.90;38.33
35553;BME280;21656;46.054;13.614;2022-08-05T09:52:30;100289.25;;;33.11;38.26
35553;BME280;21656;46.054;13.614;2022-08-05T09:55:06;100286.47;;;33.06;37.61
35553;BME280;21656;46.054;13.614;2022-08-05T09:57:38;100288.13;;;33.12;38.14
35553;BME280;21656;46.054;13.614;2022-08-05T10:00:17;100278.06;;;33.00;36.97
35553;BME280;21656;46.054;13.614;2022-08-05T10:02:45;100281.16;;;33.04;36.81
35553;BME280;21656;46.054;13.614;2022-08-05T10:08:08;100277.28;;;33.10;37.23
35553;BME280;21656;46.054;13.614;2022-08-05T10:10:47;100261.38;;;33.31;37.33
35553;BME280;21656;46.054;13.614;2022-08-05T10:13:34;100274.50;;;33.41;36.91
35553;BME280;21656;46.054;13.614;2022-08-05T10:16:02;100270.88;;;33.25;37.01
35553;BME280;21656;46.054;13.614;2022-08-05T10:18:27;100266.94;;;33.52;36.70
35553;BME280;21656;46.054;13.614;2022-08-05T10:21:04;100282.31;;;33.49;35.83
35553;BME280;21656;46.054;13.614;2022-08-05T10:23:33;100276.16;;;33.67;36.50
35553;BME280;21656;46.054;13.614;2022-08-05T10:26:03;100271.16;;;33.70;35.93
35553;BME280;21656;46.054;13.614;2022-08-05T10:28:29;100276.47;;;33.56;36.20
35553;BME280;21656;46.054;13.614;2022-08-05T10:30:56;100272.56;;;33.62;36.30
35553;BME280;21656;46.054;13.614;2022-08-05T10:33:26;100273.38;;;33.62;35.89
35553;BME280;21656;46.054;13.614;2022-08-05T10:35:52;100266.94;;;33.77;36.24
35553;BME280;21656;46.054;13.614;2022-08-05T10:38:20;100275.03;;;33.89;36.34
35553;BME280;21656;46.054;13.614;2022-08-05T10:40:55;100273.66;;;33.86;35.71
35553;BME280;21656;46.054;13.614;2022-08-05T10:46:01;100272.81;;;33.91;36.08
35553;BME280;21656;46.054;13.614;2022-08-05T10:48:43;100275.28;;;34.03;35.48
35553;BME280;21656;46.054;13.614;2022-08-05T10:51:09;100273.66;;;33.76;35.62
35553;BME280;21656;46.054;13.614;2022-08-05T10:53:38;100264.44;;;33.81;35.04
35553;BME280;21656;46.054;13.614;2022-08-05T10:56:12;100271.13;;;33.90;35.82
35553;BME280;21656;46.054;13.614;2022-08-05T10:58:47;100265.81;;;33.94;35.48
35553;BME280;21656;46.054;13.614;2022-08-05T11:01:13;100271.94;;;34.16;35.88
35553;BME280;21656;46.054;13.614;2022-08-05T11:04:07;100258.25;;;33.99;35.68
35553;BME280;21656;46.054;13.614;2022-08-05T11:06:35;100263.22;;;34.23;35.45
35553;BME280;21656;46.054;13.614;2022-08-05T11:09:20;100262.97;;;34.19;34.42
35553;BME280;21656;46.054;13.614;2022-08-05T11:11:48;100259.66;;;34.07;34.72
35553;BME280;21656;46.054;13.614;2022-08-05T11:14:28;100260.22;;;34.09;34.81
35553;BME280;21656;46.054;13.614;2022-08-05T11:19:52;100251.75;;;34.29;34.66
35553;BME280;21656;46.054;13.614;2022-08-05T11:22:41;100248.28;;;34.53;34.67
35553;BME280;21656;46.054;13.614;2022-08-05T11:25:33;100258.56;;;34.73;34.21
35553;BME280;21656;46.054;13.614;2022-08-05T11:36:06;100241.59;;;34.54;34.84
35553;BME280;21656;46.054;13.614;2022-08-05T11:41:06;100247.16;;;34.64;33.52
35553;BME280;21656;46.054;13.614;2022-08-05T11:43:32;100250.44;;;34.71;32.66
35553;BME280;21656;46.054;13.614;2022-08-05T11:45:58;100242.44;;;34.60;33.42
35553;BME280;21656;46.054;13.614;2022-08-05T11:48:25;100244.38;;;34.54;33.49
35553;BME280;21656;46.054;13.614;2022-08-05T11:50:52;100248.59;;;34.51;33.48
35553;BME280;21656;46.054;13.614;2022-08-05T11:53:18;100237.94;;;34.53;33.53
35553;BME280;21656;46.054;13.614;2022-08-05T11:56:01;100249.13;;;34.59;33.29
35553;BME280;21656;46.054;13.614;2022-08-05T12:01:00;100241.84;;;34.63;34.45
35553;BME280;21656;46.054;13.614;2022-08-05T12:03:26;100228.75;;;34.98;33.59
35553;BME280;21656;46.054;13.614;2022-08-05T12:05:51;100232.53;;;35.17;33.82
35553;BME280;21656;46.054;13.614;2022-08-05T12:08:18;100230.81;;;35.61;32.70
35553;BME280;21656;46.054;13.614;2022-08-05T12:10:43;100231.47;;;35.76;32.93
35553;BME280;21656;46.054;13.614;2022-08-05T12:13:09;100223.38;;;35.99;31.71
35553;BME280;21656;46.054;13.614;2022-08-05T12:15:35;100220.66;;;35.94;32.30
35553;BME280;21656;46.054;13.614;2022-08-05T12:18:00;100221.53;;;35.89;31.94
35553;BME280;21656;46.054;13.614;2022-08-05T12:20:28;100218.31;;;36.01;32.60
35553;BME280;21656;46.054;13.614;2022-08-05T12:23:14;100225.81;;;36.06;31.74
35553;BME280;21656;46.054;13.614;2022-08-05T12:25:53;100224.94;;;36.10;32.04
35553;BME280;21656;46.054;13.614;2022-08-05T12:28:35;100212.25;;;36.18;32.01
35553;BME280;21656;46.054;13.614;2022-08-05T12:31:01;100219.38;;;36.05;31.67
35553;BME280;21656;46.054;13.614;2022-08-05T12:33:27;100219.56;;;35.66;31.91
35553;BME280;21656;46.054;13.614;2022-08-05T12:35:54;100214.78;;;35.90;32.21
35553;BME280;21656;46.054;13.614;2022-08-05T12:38:21;100212.13;;;36.04;32.24
35553;BME280;21656;46.054;13.614;2022-08-05T12:40:48;100212.19;;;36.23;31.84
35553;BME280;21656;46.054;13.614;2022-08-05T12:43:13;100210.47;;;36.27;31.32
35553;BME280;21656;46.054;13.614;2022-08-05T12:45:52;100204.03;;;36.27;31.36
35553;BME280;21656;46.054;13.614;2022-08-05T12:48:18;100203.06;;;36.12;31.78
35553;BME280;21656;46.054;13.614;2022-08-05T12:50:43;100205.81;;;35.93;30.78
35553;BME280;21656;46.054;13.614;2022-08-05T12:53:28;100200.44;;;36.21;31.42
35553;BME280;21656;46.054;13.614;2022-08-05T12:55:54;100201.00;;;36.42;31.01
35553;BME280;21656;46.054;13.614;2022-08-05T12:58:23;100199.00;;;35.99;31.51
35553;BME280;21656;46.054;13.614;2022-08-05T13:00:48;100200.38;;;36.02;31.76
35553;BME280;21656;46.054;13.614;2022-08-05T13:03:15;100200.09;;;36.03;31.80
35553;BME280;21656;46.054;13.614;2022-08-05T13:05:40;100193.03;;;35.82;31.76
35553;BME280;21656;46.054;13.614;2022-08-05T13:08:06;100194.47;;;35.79;31.82
35553;BME280;21656;46.054;13.614;2022-08-05T13:10:32;100181.31;;;36.04;32.35
35553;BME280;21656;46.054;13.614;2022-08-05T13:12:57;100181.75;;;36.16;32.30
35553;BME280;21656;46.054;13.614;2022-08-05T13:15:28;100182.66;;;36.31;31.62
35553;BME280;21656;46.054;13.614;2022-08-05T13:17:54;100183.19;;;36.33;32.02
35553;BME280;21656;46.054;13.614;2022-08-05T13:20:20;100184.59;;;35.58;31.52
35553;BME280;21656;46.054;13.614;2022-08-05T13:22:51;100181.41;;;35.70;32.74
35553;BME280;21656;46.054;13.614;2022-08-05T13:25:19;100171.97;;;35.66;32.00
35553;BME280;21656;46.054;13.614;2022-08-05T13:27:53;100174.94;;;35.98;32.34
35553;BME280;21656;46.054;13.614;2022-08-05T13:30:20;100174.31;;;36.26;31.03
35553;BME280;21656;46.054;13.614;2022-08-05T13:32:47;100169.56;;;36.26;31.33
35553;BME280;21656;46.054;13.614;2022-08-05T13:35:14;100168.91;;;36.10;30.79
35553;BME280;21656;46.054;13.614;2022-08-05T13:37:40;100169.84;;;36.24;32.00
35553;BME280;21656;46.054;13.614;2022-08-05T13:40:06;100167.28;;;36.28;31.14
35553;BME280;21656;46.054;13.614;2022-08-05T13:42:31;100165.84;;;36.31;31.04
35553;BME280;21656;46.054;13.614;2022-08-05T13:44:57;100163.81;;;36.36;31.23
35553;BME280;21656;46.054;13.614;2022-08-05T13:47:23;100157.59;;;36.39;31.00
35553;BME280;21656;46.054;13.614;2022-08-05T13:49:49;100161.03;;;36.36;30.67
35553;BME280;21656;46.054;13.614;2022-08-05T13:52:23;100158.41;;;36.21;30.90
35553;BME280;21656;46.054;13.614;2022-08-05T13:54:54;100146.69;;;36.19;30.64
35553;BME280;21656;46.054;13.614;2022-08-05T13:57:20;100150.38;;;36.14;31.62
35553;BME280;21656;46.054;13.614;2022-08-05T13:59:46;100153.41;;;36.18;31.04
35553;BME280;21656;46.054;13.614;2022-08-05T14:02:13;100154.94;;;36.05;31.04
35553;BME280;21656;46.054;13.614;2022-08-05T14:04:43;100159.72;;;36.05;31.37
35553;BME280;21656;46.054;13.614;2022-08-05T14:07:30;100150.84;;;35.97;31.57
35553;BME280;21656;46.054;13.614;2022-08-05T14:09:55;100155.00;;;36.00;32.09
35553;BME280;21656;46.054;13.614;2022-08-05T14:12:21;100155.53;;;35.83;31.49
35553;BME280;21656;46.054;13.614;2022-08-05T14:14:46;100155.81;;;35.81;31.62
35553;BME280;21656;46.054;13.614;2022-08-05T14:17:12;100156.69;;;35.77;32.52
35553;BME280;21656;46.054;13.614;2022-08-05T14:19:39;100146.31;;;35.77;32.20
35553;BME280;21656;46.054;13.614;2022-08-05T14:22:04;100147.75;;;35.75;32.73
35553;BME280;21656;46.054;13.614;2022-08-05T14:24:30;100141.88;;;35.76;32.02
35553;BME280;21656;46.054;13.614;2022-08-05T14:26:55;100146.88;;;35.79;32.78
35553;BME280;21656;46.054;13.614;2022-08-05T14:29:20;100147.88;;;35.65;32.20
35553;BME280;21656;46.054;13.614;2022-08-05T14:31:46;100143.09;;;35.65;32.73
35553;BME280;21656;46.054;13.614;2022-08-05T14:34:11;100144.78;;;35.66;33.02
35553;BME280;21656;46.054;13.614;2022-08-05T14:36:37;100133.81;;;35.70;32.56
35553;BME280;21656;46.054;13.614;2022-08-05T14:39:03;100128.59;;;35.63;33.30
35553;BME280;21656;46.054;13.614;2022-08-05T14:41:30;100135.25;;;35.67;34.15
35553;BME280;21656;46.054;13.614;2022-08-05T14:43:56;100117.97;;;35.60;34.67
35553;BME280;21656;46.054;13.614;2022-08-05T14:46:23;100124.19;;;35.52;35.01
35553;BME280;21656;46.054;13.614;2022-08-05T14:48:48;100127.31;;;35.50;35.23
35553;BME280;21656;46.054;13.614;2022-08-05T14:51:14;100121.78;;;35.45;35.85
35553;BME280;21656;46.054;13.614;2022-08-05T14:53:39;100117.34;;;35.39;35.43
35553;BME280;21656;46.054;13.614;2022-08-05T14:56:05;100114.84;;;35.37;35.29
35553;BME280;21656;46.054;13.614;2022-08-05T14:58:30;100115.78;;;35.28;35.73
35553;BME280;21656;46.054;13.614;2022-08-05T15:00:55;100123.09;;;35.24;36.27
35553;BME280;21656;46.054;13.614;2022-08-05T15:03:21;100115.94;;;35.12;36.79
35553;BME280;21656;46.054;13.614;2022-08-05T15:05:46;100119.31;;;35.09;35.99
35553;BME280;21656;46.054;13.614;2022-08-05T15:08:12;100115.47;;;35.00;36.63
35553;BME280;21656;46.054;13.614;2022-08-05T15:10:37;100113.78;;;34.99;36.99
35553;BME280;21656;46.054;13.614;2022-08-05T15:13:02;100107.41;;;34.93;37.34
35553;BME280;21656;46.054;13.614;2022-08-05T15:15:29;100117.19;;;34.96;37.32
35553;BME280;21656;46.054;13.614;2022-08-05T15:17:54;100120.25;;;35.00;36.78
35553;BME280;21656;46.054;13.614;2022-08-05T15:20:20;100123.03;;;35.00;37.17
35553;BME280;21656;46.054;13.614;2022-08-05T15:22:47;100128.66;;;34.94;36.53
35553;BME280;21656;46.054;13.614;2022-08-05T15:25:12;100127.03;;;34.88;36.94
35553;BME280;21656;46.054;13.614;2022-08-05T15:27:38;100125.00;;;34.65;36.81
35553;BME280;21656;46.054;13.614;2022-08-05T15:30:04;100128.38;;;34.62;37.18
35553;BME280;21656;46.054;13.614;2022-08-05T15:32:29;100129.16;;;34.67;37.54
35553;BME280;21656;46.054;13.614;2022-08-05T15:34:55;100129.78;;;34.54;37.09
35553;BME280;21656;46.054;13.614;2022-08-05T15:37:21;100121.38;;;34.64;36.43
35553;BME280;21656;46.054;13.614;2022-08-05T15:39:46;100116.88;;;34.63;35.11
35553;BME280;21656;46.054;13.614;2022-08-05T15:42:11;100122.25;;;34.55;36.62
35553;BME280;21656;46.054;13.614;2022-08-05T15:44:39;100109.09;;;34.55;36.45
35553;BME280;21656;46.054;13.614;2022-08-05T15:47:07;100103.50;;;34.55;36.78
35553;BME280;21656;46.054;13.614;2022-08-05T15:49:34;100100.72;;;34.55;35.75
35553;BME280;21656;46.054;13.614;2022-08-05T15:52:00;100101.53;;;34.56;36.15
35553;BME280;21656;46.054;13.614;2022-08-05T15:54:25;100101.84;;;34.54;35.56
35553;BME280;21656;46.054;13.614;2022-08-05T15:56:51;100091.81;;;34.48;36.58
35553;BME280;21656;46.054;13.614;2022-08-05T15:59:16;100081.25;;;34.40;36.42
35553;BME280;21656;46.054;13.614;2022-08-05T16:01:42;100082.38;;;34.44;35.97
35553;BME280;21656;46.054;13.614;2022-08-05T16:04:07;100073.91;;;34.54;35.57
35553;BME280;21656;46.054;13.614;2022-08-05T16:06:34;100069.13;;;34.60;35.39
35553;BME280;21656;46.054;13.614;2022-08-05T16:08:59;100075.00;;;34.58;35.24
35553;BME280;21656;46.054;13.614;2022-08-05T16:11:25;100080.06;;;34.51;35.67
35553;BME280;21656;46.054;13.614;2022-08-05T16:13:50;100066.13;;;34.46;35.94
35553;BME280;21656;46.054;13.614;2022-08-05T16:16:16;100071.72;;;34.46;35.38
35553;BME280;21656;46.054;13.614;2022-08-05T16:18:41;100078.97;;;34.47;35.33
35553;BME280;21656;46.054;13.614;2022-08-05T16:21:07;100067.22;;;34.50;35.23
35553;BME280;21656;46.054;13.614;2022-08-05T16:23:32;100073.66;;;34.45;36.14
35553;BME280;21656;46.054;13.614;2022-08-05T16:26:05;100074.03;;;34.39;37.23
35553;BME280;21656;46.054;13.614;2022-08-05T16:28:31;100074.88;;;34.34;36.61
35553;BME280;21656;46.054;13.614;2022-08-05T16:30:57;100081.31;;;34.35;36.53
35553;BME280;21656;46.054;13.614;2022-08-05T16:33:23;100084.72;;;34.26;37.32
35553;BME280;21656;46.054;13.614;2022-08-05T16:35:49;100077.22;;;34.17;36.56
35553;BME280;21656;46.054;13.614;2022-08-05T16:38:14;100088.09;;;34.18;37.30
35553;BME280;21656;46.054;13.614;2022-08-05T16:40:40;100093.72;;;34.13;36.96
35553;BME280;21656;46.054;13.614;2022-08-05T16:43:05;100089.25;;;34.12;37.06
35553;BME280;21656;46.054;13.614;2022-08-05T16:45:31;100090.41;;;34.11;37.43
35553;BME280;21656;46.054;13.614;2022-08-05T16:47:56;100091.22;;;34.12;37.36
35553;BME280;21656;46.054;13.614;2022-08-05T16:50:21;100100.72;;;34.10;37.42
35553;BME280;21656;46.054;13.614;2022-08-05T16:52:47;100097.09;;;34.05;37.16
35553;BME280;21656;46.054;13.614;2022-08-05T16:55:12;100104.69;;;33.94;38.05
35553;BME280;21656;46.054;13.614;2022-08-05T16:57:38;100103.56;;;33.95;37.86
35553;BME280;21656;46.054;13.614;2022-08-05T17:00:04;100106.41;;;33.85;38.20
35553;BME280;21656;46.054;13.614;2022-08-05T17:02:30;100102.81;;;33.79;38.24
35553;BME280;21656;46.054;13.614;2022-08-05T17:04:56;100104.50;;;33.70;38.51
35553;BME280;21656;46.054;13.614;2022-08-05T17:07:21;100110.09;;;33.65;38.88
35553;BME280;21656;46.054;13.614;2022-08-05T17:09:47;100109.03;;;33.61;38.63
35553;BME280;21656;46.054;13.614;2022-08-05T17:12:12;100113.47;;;33.52;38.77
35553;BME280;21656;46.054;13.614;2022-08-05T17:14:37;100105.69;;;33.49;39.19
35553;BME280;21656;46.054;13.614;2022-08-05T17:17:04;100115.19;;;33.48;38.83
35553;BME280;21656;46.054;13.614;2022-08-05T17:19:29;100111.84;;;33.35;39.00
35553;BME280;21656;46.054;13.614;2022-08-05T17:21:55;100116.03;;;33.33;39.08
35553;BME280;21656;46.054;13.614;2022-08-05T17:24:20;100123.28;;;33.29;39.30
35553;BME280;21656;46.054;13.614;2022-08-05T17:26:45;100114.38;;;33.16;39.24
35553;BME280;21656;46.054;13.614;2022-08-05T17:29:11;100119.69;;;33.13;39.40
35553;BME280;21656;46.054;13.614;2022-08-05T17:31:36;100111.34;;;33.13;39.44
35553;BME280;21656;46.054;13.614;2022-08-05T17:34:01;100122.50;;;33.02;39.42
35553;BME280;21656;46.054;13.614;2022-08-05T17:36:27;100125.25;;;32.97;39.08
35553;BME280;21656;46.054;13.614;2022-08-05T17:38:52;100126.38;;;32.91;39.39
35553;BME280;21656;46.054;13.614;2022-08-05T17:41:18;100131.41;;;32.89;38.55
35553;BME280;21656;46.054;13.614;2022-08-05T17:43:45;100135.84;;;32.80;38.58
35553;BME280;21656;46.054;13.614;2022-08-05T17:46:10;100149.22;;;32.78;38.68
35553;BME280;21656;46.054;13.614;2022-08-05T17:48:36;100145.88;;;32.71;38.66
35553;BME280;21656;46.054;13.614;2022-08-05T17:51:01;100156.19;;;32.60;39.55
35553;BME280;21656;46.054;13.614;2022-08-05T17:53:27;100155.91;;;32.56;39.19
35553;BME280;21656;46.054;13.614;2022-08-05T17:55:52;100167.31;;;32.50;39.03
35553;BME280;21656;46.054;13.614;2022-08-05T17:58:17;100174.00;;;32.49;39.20
35553;BME280;21656;46.054;13.614;2022-08-05T18:00:45;100180.34;;;32.39;39.08
35553;BME280;21656;46.054;13.614;2022-08-05T18:03:11;100170.28;;;32.33;39.45
35553;BME280;21656;46.054;13.614;2022-08-05T18:05:37;100183.91;;;32.24;40.00
35553;BME280;21656;46.054;13.614;2022-08-05T18:08:03;100183.91;;;32.19;40.59
35553;BME280;21656;46.054;13.614;2022-08-05T18:10:29;100191.66;;;32.07;41.08
35553;BME280;21656;46.054;13.614;2022-08-05T18:12:54;100196.03;;;31.98;41.49
35553;BME280;21656;46.054;13.614;2022-08-05T18:15:20;100204.63;;;31.91;41.84
35553;BME280;21656;46.054;13.614;2022-08-05T18:17:45;100197.00;;;31.71;43.84
35553;BME280;21656;46.054;13.614;2022-08-05T18:20:11;100205.28;;;31.61;43.68
35553;BME280;21656;46.054;13.614;2022-08-05T18:22:37;100213.88;;;31.27;46.28
35553;BME280;21656;46.054;13.614;2022-08-05T18:25:04;100210.09;;;31.06;47.02
35553;BME280;21656;46.054;13.614;2022-08-05T18:27:29;100216.28;;;31.13;46.10
35553;BME280;21656;46.054;13.614;2022-08-05T18:29:55;100217.66;;;31.10;46.25
35553;BME280;21656;46.054;13.614;2022-08-05T18:32:21;100216.78;;;31.05;47.62
35553;BME280;21656;46.054;13.614;2022-08-05T18:34:47;100215.81;;;30.94;47.99
35553;BME280;21656;46.054;13.614;2022-08-05T18:37:12;100225.94;;;30.78;49.18
35553;BME280;21656;46.054;13.614;2022-08-05T18:39:38;100225.06;;;30.73;48.58
35553;BME280;21656;46.054;13.614;2022-08-05T18:42:03;100235.06;;;30.47;49.97
35553;BME280;21656;46.054;13.614;2022-08-05T18:44:29;100231.16;;;30.26;50.61
35553;BME280;21656;46.054;13.614;2022-08-05T18:46:56;100233.69;;;30.27;50.25
35553;BME280;21656;46.054;13.614;2022-08-05T18:49:22;100238.25;;;30.16;50.85
35553;BME280;21656;46.054;13.614;2022-08-05T18:52:06;100247.59;;;30.10;50.45
35553;BME280;21656;46.054;13.614;2022-08-05T18:54:50;100251.00;;;29.95;50.54
